createdAt,value
2023-02-22T00:02:29.365Z,31.38
2023-02-22T00:04:56.695Z,33.70
2023-02-22T00:07:24.067Z,27.50
2023-02-22T00:09:51.416Z,26.20
2023-02-22T00:12:18.878Z,31.42
2023-02-22T00:14:46.230Z,26.58
2023-02-22T00:17:13.873Z,27.35
2023-02-22T00:19:41.183Z,37.22
2023-02-22T00:22:08.586Z,36.42
2023-02-22T00:24:36.413Z,28.60
2023-02-22T00:27:03.895Z,29.63
2023-02-22T00:29:31.221Z,35.45
2023-02-22T00:31:58.641Z,33.88
2023-02-22T00:34:27.026Z,34.03
2023-02-22T00:36:54.283Z,34.15
2023-02-22T00:39:21.651Z,32.10
2023-02-22T00:41:50.055Z,32.95
2023-02-22T00:44:17.345Z,33.05
2023-02-22T00:46:45.628Z,33.22
2023-02-22T00:49:13.162Z,29.90
2023-02-22T00:51:40.433Z,25.27
2023-02-22T00:54:08.269Z,37.45
2023-02-22T00:56:35.644Z,35.72
2023-02-22T00:59:03.669Z,28.45
2023-02-22T01:01:32.216Z,31.63
2023-02-22T01:03:59.514Z,30.05
2023-02-22T01:06:26.923Z,26.35
2023-02-22T01:08:54.062Z,31.60
2023-02-22T01:11:22.594Z,29.20
2023-02-22T01:13:50.022Z,34.83
2023-02-22T01:16:17.452Z,31.45
2023-02-22T01:18:44.749Z,32.83
2023-02-22T01:21:12.353Z,26.00
2023-02-22T01:23:41.644Z,31.20
2023-02-22T01:26:09.002Z,34.95
2023-02-22T01:28:38.100Z,25.77
2023-02-22T01:31:06.540Z,29.33
2023-02-22T01:33:34.293Z,29.05
2023-02-22T01:36:01.427Z,30.90
2023-02-22T01:38:28.841Z,33.70
2023-02-22T01:40:56.065Z,30.85
2023-02-22T01:43:31.245Z,29.80
2023-02-22T01:46:22.172Z,30.60
2023-02-22T01:49:00.513Z,30.05
2023-02-22T01:51:32.272Z,34.70
2023-02-22T01:54:06.343Z,20.55
2023-02-22T01:56:38.434Z,34.45
2023-02-22T01:59:10.068Z,28.25
2023-02-22T02:01:43.429Z,24.95
2023-02-22T02:04:16.452Z,27.95
2023-02-22T02:06:45.292Z,30.55
2023-02-22T02:09:37.029Z,29.58
2023-02-22T02:12:06.683Z,24.88
2023-02-22T02:14:34.336Z,32.42
2023-02-22T02:17:02.262Z,29.25
2023-02-22T02:19:57.111Z,27.52
2023-02-22T02:22:38.750Z,22.88
2023-02-22T02:25:47.417Z,27.38
2023-02-22T02:28:26.926Z,29.83
2023-02-22T02:31:21.656Z,25.08
2023-02-22T02:33:58.839Z,31.27
2023-02-22T02:36:41.889Z,24.30
2023-02-22T02:39:16.632Z,25.55
2023-02-22T02:41:49.594Z,25.52
2023-02-22T02:44:28.491Z,25.23
2023-02-22T02:47:04.551Z,25.70
2023-02-22T02:49:40.316Z,27.40
2023-02-22T02:52:10.518Z,24.20
2023-02-22T02:54:39.082Z,23.73
2023-02-22T02:57:06.986Z,22.02
2023-02-22T02:59:37.680Z,23.42
2023-02-22T03:02:40.010Z,23.92
2023-02-22T03:05:55.562Z,26.73
2023-02-22T03:08:29.020Z,28.45
2023-02-22T03:11:15.557Z,26.52
2023-02-22T03:14:16.673Z,23.98
2023-02-22T03:16:50.543Z,20.65
2023-02-22T03:19:38.922Z,22.73
2023-02-22T03:22:11.600Z,21.27
2023-02-22T03:25:08.188Z,23.20
2023-02-22T03:27:43.930Z,19.88
2023-02-22T03:30:24.261Z,21.00
2023-02-22T03:33:02.356Z,22.27
2023-02-22T03:35:35.933Z,21.33
2023-02-22T03:38:10.138Z,17.58
2023-02-22T03:40:43.619Z,23.95
2023-02-22T03:43:17.165Z,20.15
2023-02-22T03:45:49.212Z,18.83
2023-02-22T03:48:36.908Z,20.23
2023-02-22T03:51:06.863Z,17.02
2023-02-22T03:53:37.408Z,20.10
2023-02-22T03:56:10.614Z,17.50
2023-02-22T03:58:40.923Z,17.83
2023-02-22T04:01:08.066Z,20.77
2023-02-22T04:03:35.276Z,22.63
2023-02-22T04:06:06.562Z,17.05
2023-02-22T04:08:34.810Z,19.23
2023-02-22T04:11:02.751Z,19.65
2023-02-22T04:13:31.530Z,22.55
2023-02-22T04:15:59.952Z,16.73
2023-02-22T04:18:27.630Z,18.02
2023-02-22T04:20:54.879Z,15.75
2023-02-22T04:23:35.896Z,16.27
2023-02-22T04:26:03.872Z,18.17
2023-02-22T04:28:31.428Z,18.42
2023-02-22T04:31:17.406Z,16.90
2023-02-22T04:33:45.346Z,16.00
2023-02-22T04:36:16.402Z,19.98
2023-02-22T04:38:45.068Z,15.18
2023-02-22T04:41:12.933Z,23.92
2023-02-22T04:43:40.575Z,21.30
2023-02-22T04:46:34.332Z,21.15
2023-02-22T04:49:02.746Z,22.38
2023-02-22T04:51:33.166Z,16.25
2023-02-22T04:56:32.510Z,17.88
2023-02-22T04:59:00.055Z,19.60
2023-02-22T05:01:32.059Z,17.80
2023-02-22T05:03:59.551Z,18.38
2023-02-22T05:06:26.804Z,18.15
2023-02-22T05:08:54.044Z,18.17
2023-02-22T05:11:22.248Z,14.40
2023-02-22T05:13:49.514Z,19.77
2023-02-22T05:16:17.213Z,14.23
2023-02-22T05:18:44.470Z,12.77
2023-02-22T05:21:11.646Z,16.63
2023-02-22T05:23:38.982Z,17.15
2023-02-22T05:26:09.475Z,14.52
2023-02-22T05:28:37.933Z,11.32
2023-02-22T05:31:05.351Z,12.00
2023-02-22T05:33:32.840Z,14.18
2023-02-22T05:36:00.150Z,12.90
2023-02-22T05:38:27.437Z,10.77
2023-02-22T05:40:54.625Z,11.82
2023-02-22T05:43:22.209Z,12.38
2023-02-22T05:45:49.512Z,14.57
2023-02-22T05:48:16.868Z,12.93
2023-02-22T05:50:44.305Z,13.40
2023-02-22T05:53:11.685Z,16.35
2023-02-22T05:55:38.888Z,12.07
2023-02-22T05:58:06.423Z,10.95
2023-02-22T06:00:33.853Z,14.35
2023-02-22T06:03:07.448Z,15.52
2023-02-22T06:05:34.826Z,15.80
2023-02-22T06:08:03.563Z,12.70
2023-02-22T06:10:31.224Z,11.65
2023-02-22T06:12:59.487Z,12.45
2023-02-22T06:15:28.628Z,11.80
2023-02-22T06:17:56.907Z,12.55
2023-02-22T06:20:26.939Z,11.27
2023-02-22T06:22:56.165Z,10.32
2023-02-22T06:25:26.199Z,11.82
2023-02-22T06:27:53.537Z,10.57
2023-02-22T06:30:22.807Z,10.07
2023-02-22T06:32:50.384Z,9.87
2023-02-22T06:35:17.752Z,7.90
2023-02-22T06:37:45.188Z,9.70
2023-02-22T06:40:13.501Z,9.68
2023-02-22T06:42:40.805Z,12.68
2023-02-22T06:45:09.437Z,7.55
2023-02-22T06:47:41.669Z,11.95
2023-02-22T06:50:34.889Z,13.05
2023-02-22T06:53:03.080Z,11.40
2023-02-22T06:55:32.332Z,16.48
2023-02-22T06:58:00.764Z,14.23
2023-02-22T07:00:30.176Z,16.95
2023-02-22T07:02:58.590Z,19.60
2023-02-22T07:05:27.561Z,19.48
2023-02-22T07:08:02.620Z,19.40
2023-02-22T07:10:32.273Z,20.13
2023-02-22T07:12:59.786Z,20.55
2023-02-22T07:15:30.101Z,22.85
2023-02-22T07:20:27.395Z,19.73
2023-02-22T07:22:55.230Z,12.82
2023-02-22T07:25:24.335Z,12.82
2023-02-22T07:27:52.729Z,14.35
2023-02-22T07:30:25.913Z,13.90
2023-02-22T07:32:55.654Z,10.73
2023-02-22T07:35:37.479Z,7.53
2023-02-22T07:38:08.375Z,8.25
2023-02-22T07:40:37.438Z,13.27
2023-02-22T07:43:14.692Z,11.82
2023-02-22T07:45:41.990Z,15.57
2023-02-22T07:48:09.664Z,12.65
2023-02-22T07:50:37.279Z,9.88
2023-02-22T07:53:07.704Z,10.80
2023-02-22T07:55:35.538Z,10.63
2023-02-22T07:58:05.776Z,9.32
2023-02-22T08:05:15.679Z,7.93
2023-02-22T08:08:21.898Z,8.55
2023-02-22T08:15:58.747Z,6.95
2023-02-22T08:19:08.941Z,5.45
2023-02-22T08:22:02.934Z,7.10
2023-02-22T08:25:06.509Z,9.45
2023-02-22T08:28:28.821Z,6.75
2023-02-22T08:34:58.979Z,6.25
2023-02-22T08:38:14.461Z,8.25
2023-02-22T08:41:25.802Z,8.95
2023-02-22T08:44:34.382Z,6.55
2023-02-22T09:00:51.193Z,10.27
2023-02-22T09:09:01.373Z,7.97
2023-02-22T10:00:07.768Z,15.15
2023-02-22T10:12:03.355Z,10.23
2023-02-22T10:14:46.137Z,8.88
2023-02-22T11:31:27.687Z,8.43
2023-02-22T11:35:08.656Z,11.68
2023-02-22T11:39:00.054Z,10.88
2023-02-22T11:42:41.731Z,10.63
2023-02-22T11:54:06.315Z,4.97
2023-02-22T12:10:50.170Z,10.65
2023-02-22T12:14:53.159Z,11.30
2023-02-22T12:18:24.634Z,12.63
2023-02-22T12:21:37.874Z,12.05
2023-02-22T12:25:32.496Z,15.45
2023-02-22T12:28:48.594Z,9.93
2023-02-22T12:40:43.059Z,7.30
2023-02-22T12:53:00.040Z,13.90
2023-02-22T13:05:28.104Z,9.07
2023-02-22T13:08:44.279Z,9.05
2023-02-22T13:33:08.781Z,8.40
2023-02-22T13:40:25.968Z,9.02
2023-02-22T14:05:05.592Z,12.70
2023-02-22T14:12:22.430Z,6.25
2023-02-22T14:20:00.111Z,5.78
2023-02-22T14:27:52.557Z,6.68
2023-02-22T14:50:59.433Z,5.90
2023-02-22T15:54:42.221Z,6.20
2023-02-22T16:05:44.838Z,6.68
2023-02-22T16:12:57.454Z,5.97
2023-02-22T16:16:18.260Z,5.60
2023-02-22T16:19:34.802Z,6.50
2023-02-22T16:22:54.494Z,7.35
2023-02-22T16:26:05.602Z,8.55
2023-02-22T16:32:39.492Z,7.38
2023-02-22T16:36:03.308Z,7.82
2023-02-22T17:08:10.158Z,18.40
2023-02-22T17:47:19.316Z,15.30
2023-02-22T17:50:32.113Z,11.02
2023-02-22T17:57:21.766Z,13.13
2023-02-22T18:00:53.663Z,11.65
2023-02-22T18:12:56.187Z,9.65
2023-02-22T18:37:52.176Z,13.98
2023-02-22T18:58:32.625Z,13.15
2023-02-22T19:28:03.899Z,15.43
2023-02-22T19:57:07.353Z,14.63
2023-02-22T20:04:17.076Z,21.85
2023-02-22T20:23:18.649Z,18.70
2023-02-22T20:38:38.081Z,18.23
2023-02-22T20:41:37.017Z,19.73
2023-02-22T20:47:43.572Z,17.38
2023-02-22T20:50:26.824Z,17.63
2023-02-22T20:53:28.198Z,14.63
2023-02-22T20:56:25.674Z,18.02
2023-02-22T20:59:00.301Z,16.38
2023-02-22T21:01:28.239Z,15.50
2023-02-22T21:04:09.075Z,18.70
2023-02-22T21:07:43.838Z,17.05
2023-02-22T21:36:11.537Z,19.70
2023-02-22T21:43:16.992Z,22.58
2023-02-22T21:58:40.573Z,22.42
2023-02-22T22:15:09.574Z,24.08
2023-02-22T22:32:08.003Z,17.65
2023-02-22T22:48:55.977Z,21.55
2023-02-22T22:52:11.211Z,23.75
2023-02-22T23:04:37.248Z,21.17
2023-02-22T23:07:16.343Z,23.92
2023-02-22T23:10:21.369Z,24.35
2023-02-22T23:13:04.656Z,23.50
2023-02-22T23:15:34.956Z,21.48
2023-02-22T23:18:22.408Z,22.52
2023-02-22T23:21:32.441Z,20.77
2023-02-22T23:24:24.968Z,20.50
2023-02-22T23:27:06.105Z,21.42
2023-02-22T23:30:09.547Z,23.75
2023-02-22T23:34:09.462Z,23.58
2023-02-22T23:41:18.952Z,22.30
2023-02-22T23:44:14.087Z,18.85
2023-02-22T23:47:34.042Z,20.25
2023-02-22T23:50:21.435Z,20.63
2023-02-22T23:53:10.939Z,21.15
